KBBW

Broken Bow Municipal / Keith Glaze Field Airport

Broken Bow, Nebraska, USA
METAR KBBW 230953Z AUTO 00000KT 10SM CLR M11/M13 A3014 RMK AO2 SLP245 T11111133
Observed Flight Rules
Feb-23 @ 09:53 UTC (34 minutes ago) Visual Flight Rules
Wind Visibility Clouds
Calm 10 miles
  • Clear skies
Temperatures Readings
Current -11°C / 12°F
Dewpoint -13°C / 9°F
Humidity 85%
Altimeter 30.14" Hg
Pressure 1024.5 hPa
Elevation 776
METAR KBBW 230953Z AUTO 00000KT 10SM CLR M11/M13 A3014 RMK AO2 SLP245 T11111133
Observed Flight Rules
Feb-23 @ 09:53 UTC
(34 minutes ago)
VFR
Wind Visibility
Calm 10 miles
Clouds
  • Clear skies
Temperature Dewpoint
-11°C / 12°F -13°C / 9°F
Humidity Altimeter Pressure
85% 30.14" Hg 1024.5 hPa